This is the latest recevied weather packets stored in our database for station/object K3BAK-13. If no packets are shown the sender has not sent any weather packets the latest 10 day(s).
| Time | Temp. | Humidity | Pressure | Rain* | Wind** | Luminosity | Snow |
|---|---|---|---|---|---|---|---|
| 1777834262 | 13.89° C | 42% | 1016.3 hPa | 0 mm | - | - | - |
| 1777832461 | 13.33° C | 45% | 1016.7 hPa | 0 mm | - | - | - |
| 1777830962 | 13.33° C | 45% | 1016.9 hPa | 0 mm | - | - | - |
| 1777830661 | 12.78° C | 47% | 1016.8 hPa | 0 mm | - | - | - |
| 1777828857 | 12.22° C | 43% | 1017.3 hPa | 0 mm | - | - | - |
| 1777828259 | 12.22° C | 43% | 1017.3 hPa | 0 mm | - | - | - |
| 1777824961 | 10.56° C | 45% | 1017.8 hPa | 0 mm | - | - | - |
| 1777821059 | 8.89° C | 50% | 1018.2 hPa | 0 mm | - | - | - |
| 1777820158 | 8.89° C | 51% | 1018.2 hPa | 0 mm | - | - | - |
| 1777818357 | 8.33° C | 57% | 1018.5 hPa | 0 mm | - | - | - |
| 1777817759 | 7.78° C | 59% | 1018.5 hPa | 0 mm | - | - | - |
| 1777817162 | 7.22° C | 61% | 1018.6 hPa | 0 mm | - | - | - |
| 1777815963 | 6.67° C | 64% | 1018.7 hPa | 0 mm | - | - | - |
| 1777813560 | 5° C | 73% | 1018.7 hPa | 0 mm | - | - | - |
| 1777812957 | 5° C | 74% | 1018.6 hPa | 0 mm | - | - | - |
| 1777809661 | 2.78° C | 84% | 1018.2 hPa | 0 mm | - | - | - |
| 1777808760 | 2.22° C | 87% | 1018.2 hPa | 0 mm | - | - | - |
| 1777807258 | 1.11° C | 90% | 1017.9 hPa | 0 mm | - | - | - |
| 1777806660 | 1.11° C | 90% | 1018 hPa | 0 mm | - | - | - |
| 1777805458 | 0.56° C | 90% | 1017.6 hPa | 0 mm | - | - | - |
| 1777799457 | 0.56° C | 89% | 1017.3 hPa | 0 mm | - | - | - |
| 1777799158 | 1.11° C | 89% | 1017.3 hPa | 0 mm | - | - | - |
| 1777798860 | 1.11° C | 89% | 1017.2 hPa | 0 mm | - | - | - |
| 1777797357 | 1.11° C | 87% | 1017.1 hPa | 0 mm | - | - | - |
| 1777794059 | 1.67° C | 86% | 1017 hPa | 0 mm | - | - | - |
* Rain latest hour (hover to see other rain measurements)
** Current wind speed in m/s (hover to see current wind gust speed)